Explorer — WDD9371 — position and weather

sailwx.info

Track history (hours):
 
Tides and Currents Weather Stations Pressure Air Temp Water Temp Dewpoint Dewpoint Depression Visibility Wind Speed Wind Dir Waves Ship Positions

Explorer

Owner: F/V Explorer, New Bedford, MA. More information available from US FCC via Universal Licensing System and Coast Guard Vessel Documentation Center.

Last reported at 2014-Apr-19 21:14 UTC. Time now 2014-Nov-23 02:01 UTC.
Position N 40°17' W 072°19'.
Warning: this ship's position is months out of date.

Length 28 m.

Type: Fishing. MMSI: 367310440.

Date/timePositionNaut miles runAvg speedWind from/ knotsBaromVisibWave heightAir tempDewpointWater temp
2014-Apr-19 21:14N 40°17' W 072°19'3 1.1
2014-Apr-19 18:24N 40°17' W 072°23'3 3.3
2014-Apr-19 17:33N 40°17' W 072°20'4 4.3
2014-Apr-19 16:33N 40°21' W 072°18'5 4.7
2014-Apr-19 15:33N 40°22' W 072°24'4 4.5
2014-Apr-19 14:33N 40°21' W 072°30'5 4.4
2014-Apr-19 13:30N 40°21' W 072°36'4 4.4
2014-Apr-19 12:32N 40°21' W 072°42'11 4.4
2014-Apr-19 10:10N 40°21' W 072°55'3 4.2
2014-Apr-19 09:33N 40°21' W 072°59'5 4.6
2014-Apr-19 08:31N 40°19' W 073°05'5 4.5
2014-Apr-19 07:31N 40°15' W 073°07'4 4.3
2014-Apr-19 06:30N 40°11' W 073°08'4 3.6
2014-Apr-19 05:27N 40°08' W 073°11'3 3.5
2014-Apr-19 04:34N 40°05' W 073°12'3 2.7
2014-Apr-19 03:33N 40°04' W 073°09'3 0.2
2014-Apr-18 14:25N 40°04' W 073°06'2 2.1
2014-Apr-18 13:33N 40°03' W 073°03'2 1.1
2014-Apr-18 12:13N 40°04' W 073°05'2 3.1
2014-Apr-18 11:32N 40°04' W 073°02'4 3.9
2014-Apr-18 10:33N 40°06' W 072°58'1 0.9
2014-Apr-18 09:23N 40°06' W 072°60'1 0.5
2014-Apr-18 08:09N 40°06' W 072°60'2 2.5
2014-Apr-18 07:31N 40°06' W 073°02'0 0.1
2014-Apr-18 06:23N 40°06' W 073°02'1 0.7
2014-Apr-18 05:24N 40°06' W 073°01'0 0.4
2014-Apr-18 04:11N 40°06' W 073°00'1 0.6
2014-Apr-18 02:27N 40°06' W 072°59'2 0.1
2014-Apr-17 02:18N 40°08' W 073°01'0 0.2
2014-Apr-17 01:07N 40°08' W 073°01'3 1.5
2014-Apr-16 23:26N 40°06' W 072°59'5 0.1
2014-Apr-15 05:33N 40°10' W 072°56'8 3.9
2014-Apr-15 03:32N 40°13' W 072°46'3 3.4
2014-Apr-15 02:33N 40°15' W 072°43'6 3.2
2014-Apr-15 00:34N 40°21' W 072°41'1 1.0
2014-Apr-14 23:34N 40°21' W 072°40'5 4.7
2014-Apr-14 22:33N 40°21' W 072°46'4 3.9
2014-Apr-14 21:34N 40°21' W 072°41'2 2.3
2014-Apr-14 20:34N 40°21' W 072°44'4 4.4
2014-Apr-14 19:33N 40°21' W 072°39'4 4.4
2014-Apr-14 18:34N 40°22' W 072°33'4 4.3
2014-Apr-14 17:33N 40°22' W 072°27'4 4.4
2014-Apr-14 16:34N 40°22' W 072°22'1 1.4
2014-Apr-14 15:32N 40°21' W 072°20'1 1.2
2014-Apr-14 14:33N 40°22' W 072°21'1 0.9
2014-Apr-14 13:31N 40°21' W 072°20'3 1.7
2014-Apr-14 11:33N 40°22' W 072°16'0 0.5
2014-Apr-14 10:33N 40°22' W 072°17'1 1.4
2014-Apr-14 09:33N 40°21' W 072°19'3 2.5
2014-Apr-14 08:34N 40°22' W 072°15'4 3.8
2014-Apr-14 07:34N 40°21' W 072°20'5 4.7
2014-Apr-14 06:33N 40°22' W 072°14'4 4.0
2014-Apr-14 05:33N 40°21' W 072°19'3 0.4
2014-Apr-13 22:29N 40°21' W 072°23'3 2.6
2014-Apr-13 21:16N 40°24' W 072°22'1 1.0
2014-Apr-13 20:33N 40°24' W 072°22'2 1.6
2014-Apr-13 19:31N 40°23' W 072°20'4 3.9
2014-Apr-13 18:32N 40°22' W 072°25'2 1.6
2014-Apr-13 17:33N 40°22' W 072°27'4 3.8
2014-Apr-13 16:33N 40°22' W 072°32'4 4.5
2014-Apr-13 15:33N 40°22' W 072°38'4 4.1
2014-Apr-13 14:34N 40°21' W 072°32'5 4.8
2014-Apr-13 13:33N 40°21' W 072°26'4 4.3
2014-Apr-13 12:33N 40°22' W 072°20'1 0.7
2014-Apr-13 11:33N 40°21' W 072°20'0 0.1
2014-Apr-13 10:33N 40°21' W 072°20'1 1.4
2014-Apr-13 09:33N 40°21' W 072°22'1 0.9
2014-Apr-13 08:33N 40°21' W 072°20'1 0.5
2014-Apr-13 07:33N 40°22' W 072°20'0 0.2
2014-Apr-13 06:33N 40°22' W 072°20'2 1.8
2014-Apr-13 05:33N 40°23' W 072°22'1 1.1
2014-Apr-13 04:33N 40°24' W 072°22'3 2.7
2014-Apr-13 03:33N 40°22' W 072°19'4 3.7
2014-Apr-13 02:24N 40°22' W 072°25'4 4.8
2014-Apr-13 01:33N 40°21' W 072°30'3 3.4
2014-Apr-13 00:33N 40°21' W 072°26'1 0.8
2014-Apr-12 23:28N 40°22' W 072°27'2 2.6
2014-Apr-12 22:32N 40°21' W 072°30'5 4.7
2014-Apr-12 21:33N 40°22' W 072°24'3 3.3
2014-Apr-12 20:33N 40°21' W 072°28'0 0.2
2014-Apr-12 19:33N 40°22' W 072°29'3 3.1
2014-Apr-12 18:33N 40°22' W 072°25'5 4.6
2014-Apr-12 17:33N 40°22' W 072°31'4 3.7
2014-Apr-12 16:33N 40°22' W 072°26'3 2.8
2014-Apr-12 15:33N 40°24' W 072°23'3 2.6
2014-Apr-12 14:33N 40°22' W 072°25'0 0.4
2014-Apr-12 13:33N 40°22' W 072°24'1 1.4
2014-Apr-12 12:33N 40°22' W 072°26'1 1.0
2014-Apr-12 11:33N 40°22' W 072°25'0 0.3
2014-Apr-12 10:33N 40°22' W 072°25'4 3.0
2014-Apr-12 09:09N 40°22' W 072°30'3 4.7
2014-Apr-12 08:32N 40°22' W 072°26'9 1.5
2014-Apr-12 02:20N 40°29' W 072°34'4 4.8
2014-Apr-12 01:30N 40°33' W 072°35'2 1.6
2014-Apr-12 00:34N 40°33' W 072°33'3 3.1
2014-Apr-11 23:34N 40°31' W 072°35'1 0.7
2014-Apr-11 22:33N 40°31' W 072°36'1 0.8
2014-Apr-11 21:33N 40°31' W 072°36'3 3.4
2014-Apr-11 20:34N 40°27' W 072°37'4 4.2
2014-Apr-11 19:33N 40°32' W 072°36'2 2.3
2014-Apr-11 18:33N 40°29' W 072°37'1 0.9
2014-Apr-11 17:33N 40°28' W 072°37'1 1.0
2014-Apr-11 16:34N 40°28' W 072°37'0 0.4
2014-Apr-11 15:33N 40°27' W 072°37'2 1.8
2014-Apr-11 14:34N 40°29' W 072°37'1 0.6
2014-Apr-11 13:30N 40°29' W 072°36'4 3.8
2014-Apr-11 12:33N 40°26' W 072°37'3 2.7
2014-Apr-11 11:24N 40°23' W 072°38'1 0.6
2014-Apr-11 10:26N 40°23' W 072°38'2 2.8
2014-Apr-11 09:34N 40°26' W 072°37'4 4.0
2014-Apr-11 08:34N 40°22' W 072°38'2 2.1
2014-Apr-11 07:33N 40°20' W 072°35'4 4.2
2014-Apr-11 06:33N 40°21' W 072°30'5 4.6
2014-Apr-11 05:34N 40°22' W 072°24'1 1.2
2014-Apr-11 04:33N 40°21' W 072°25'4 4.1
2014-Apr-11 03:33N 40°23' W 072°20'4 3.8
2014-Apr-11 02:33N 40°22' W 072°25'5 4.7
2014-Apr-11 01:34N 40°22' W 072°31'4 4.2
2014-Apr-11 00:33N 40°22' W 072°37'4 3.9
2014-Apr-10 23:33N 40°21' W 072°42'4 4.3
2014-Apr-10 22:33N 40°21' W 072°47'5 4.8
2014-Apr-10 21:33N 40°21' W 072°54'4 3.6
2014-Apr-10 20:33N 40°22' W 072°58'1 0.4
2014-Apr-10 18:27N 40°23' W 072°58'  
Track history (hours):
 
Tides and Currents Weather Stations Pressure Air Temp Water Temp Dewpoint Dewpoint Depression Visibility Wind Speed Wind Dir Waves Ship Positions

Explorer

Owner: F/V Explorer, New Bedford, MA. More information available from US FCC via Universal Licensing System and Coast Guard Vessel Documentation Center.

Last reported at 2014-Apr-19 21:14 UTC. Time now 2014-Nov-23 02:01 UTC.
Position N 40°17' W 072°19'.
Warning: this ship's position is months out of date.

Length 28 m.

Type: Fishing. MMSI: 367310440.

Date/timePositionNaut miles runAvg speedWind from/ knotsBaromVisibWave heightAir tempDewpointWater temp
2014-Apr-19 21:14N 40°17' W 072°19'3 1.1
2014-Apr-19 18:24N 40°17' W 072°23'3 3.3
2014-Apr-19 17:33N 40°17' W 072°20'4 4.3
2014-Apr-19 16:33N 40°21' W 072°18'5 4.7
2014-Apr-19 15:33N 40°22' W 072°24'4 4.5
2014-Apr-19 14:33N 40°21' W 072°30'5 4.4
2014-Apr-19 13:30N 40°21' W 072°36'4 4.4
2014-Apr-19 12:32N 40°21' W 072°42'11 4.4
2014-Apr-19 10:10N 40°21' W 072°55'3 4.2
2014-Apr-19 09:33N 40°21' W 072°59'5 4.6
2014-Apr-19 08:31N 40°19' W 073°05'5 4.5
2014-Apr-19 07:31N 40°15' W 073°07'4 4.3
2014-Apr-19 06:30N 40°11' W 073°08'4 3.6
2014-Apr-19 05:27N 40°08' W 073°11'3 3.5
2014-Apr-19 04:34N 40°05' W 073°12'3 2.7
2014-Apr-19 03:33N 40°04' W 073°09'3 0.2
2014-Apr-18 14:25N 40°04' W 073°06'2 2.1
2014-Apr-18 13:33N 40°03' W 073°03'2 1.1
2014-Apr-18 12:13N 40°04' W 073°05'2 3.1
2014-Apr-18 11:32N 40°04' W 073°02'4 3.9
2014-Apr-18 10:33N 40°06' W 072°58'1 0.9
2014-Apr-18 09:23N 40°06' W 072°60'1 0.5
2014-Apr-18 08:09N 40°06' W 072°60'2 2.5
2014-Apr-18 07:31N 40°06' W 073°02'0 0.1
2014-Apr-18 06:23N 40°06' W 073°02'1 0.7
2014-Apr-18 05:24N 40°06' W 073°01'0 0.4
2014-Apr-18 04:11N 40°06' W 073°00'1 0.6
2014-Apr-18 02:27N 40°06' W 072°59'2 0.1
2014-Apr-17 02:18N 40°08' W 073°01'0 0.2
2014-Apr-17 01:07N 40°08' W 073°01'3 1.5
2014-Apr-16 23:26N 40°06' W 072°59'5 0.1
2014-Apr-15 05:33N 40°10' W 072°56'8 3.9
2014-Apr-15 03:32N 40°13' W 072°46'3 3.4
2014-Apr-15 02:33N 40°15' W 072°43'6 3.2
2014-Apr-15 00:34N 40°21' W 072°41'1 1.0
2014-Apr-14 23:34N 40°21' W 072°40'5 4.7
2014-Apr-14 22:33N 40°21' W 072°46'4 3.9
2014-Apr-14 21:34N 40°21' W 072°41'2 2.3
2014-Apr-14 20:34N 40°21' W 072°44'4 4.4
2014-Apr-14 19:33N 40°21' W 072°39'4 4.4
2014-Apr-14 18:34N 40°22' W 072°33'4 4.3
2014-Apr-14 17:33N 40°22' W 072°27'4 4.4
2014-Apr-14 16:34N 40°22' W 072°22'1 1.4
2014-Apr-14 15:32N 40°21' W 072°20'1 1.2
2014-Apr-14 14:33N 40°22' W 072°21'1 0.9
2014-Apr-14 13:31N 40°21' W 072°20'3 1.7
2014-Apr-14 11:33N 40°22' W 072°16'0 0.5
2014-Apr-14 10:33N 40°22' W 072°17'1 1.4
2014-Apr-14 09:33N 40°21' W 072°19'3 2.5
2014-Apr-14 08:34N 40°22' W 072°15'4 3.8
2014-Apr-14 07:34N 40°21' W 072°20'5 4.7
2014-Apr-14 06:33N 40°22' W 072°14'4 4.0
2014-Apr-14 05:33N 40°21' W 072°19'3 0.4
2014-Apr-13 22:29N 40°21' W 072°23'3 2.6
2014-Apr-13 21:16N 40°24' W 072°22'1 1.0
2014-Apr-13 20:33N 40°24' W 072°22'2 1.6
2014-Apr-13 19:31N 40°23' W 072°20'4 3.9
2014-Apr-13 18:32N 40°22' W 072°25'2 1.6
2014-Apr-13 17:33N 40°22' W 072°27'4 3.8
2014-Apr-13 16:33N 40°22' W 072°32'4 4.5
2014-Apr-13 15:33N 40°22' W 072°38'4 4.1
2014-Apr-13 14:34N 40°21' W 072°32'5 4.8
2014-Apr-13 13:33N 40°21' W 072°26'4 4.3
2014-Apr-13 12:33N 40°22' W 072°20'1 0.7
2014-Apr-13 11:33N 40°21' W 072°20'0 0.1
2014-Apr-13 10:33N 40°21' W 072°20'1 1.4
2014-Apr-13 09:33N 40°21' W 072°22'1 0.9
2014-Apr-13 08:33N 40°21' W 072°20'1 0.5
2014-Apr-13 07:33N 40°22' W 072°20'0 0.2
2014-Apr-13 06:33N 40°22' W 072°20'2 1.8
2014-Apr-13 05:33N 40°23' W 072°22'1 1.1
2014-Apr-13 04:33N 40°24' W 072°22'3 2.7
2014-Apr-13 03:33N 40°22' W 072°19'4 3.7
2014-Apr-13 02:24N 40°22' W 072°25'4 4.8
2014-Apr-13 01:33N 40°21' W 072°30'3 3.4
2014-Apr-13 00:33N 40°21' W 072°26'1 0.8
2014-Apr-12 23:28N 40°22' W 072°27'2 2.6
2014-Apr-12 22:32N 40°21' W 072°30'5 4.7
2014-Apr-12 21:33N 40°22' W 072°24'3 3.3
2014-Apr-12 20:33N 40°21' W 072°28'0 0.2
2014-Apr-12 19:33N 40°22' W 072°29'3 3.1
2014-Apr-12 18:33N 40°22' W 072°25'5 4.6
2014-Apr-12 17:33N 40°22' W 072°31'4 3.7
2014-Apr-12 16:33N 40°22' W 072°26'3 2.8
2014-Apr-12 15:33N 40°24' W 072°23'3 2.6
2014-Apr-12 14:33N 40°22' W 072°25'0 0.4
2014-Apr-12 13:33N 40°22' W 072°24'1 1.4
2014-Apr-12 12:33N 40°22' W 072°26'1 1.0
2014-Apr-12 11:33N 40°22' W 072°25'0 0.3
2014-Apr-12 10:33N 40°22' W 072°25'4 3.0
2014-Apr-12 09:09N 40°22' W 072°30'3 4.7
2014-Apr-12 08:32N 40°22' W 072°26'9 1.5
2014-Apr-12 02:20N 40°29' W 072°34'4 4.8
2014-Apr-12 01:30N 40°33' W 072°35'2 1.6
2014-Apr-12 00:34N 40°33' W 072°33'3 3.1
2014-Apr-11 23:34N 40°31' W 072°35'1 0.7
2014-Apr-11 22:33N 40°31' W 072°36'1 0.8
2014-Apr-11 21:33N 40°31' W 072°36'3 3.4
2014-Apr-11 20:34N 40°27' W 072°37'4 4.2
2014-Apr-11 19:33N 40°32' W 072°36'2 2.3
2014-Apr-11 18:33N 40°29' W 072°37'1 0.9
2014-Apr-11 17:33N 40°28' W 072°37'1 1.0
2014-Apr-11 16:34N 40°28' W 072°37'0 0.4
2014-Apr-11 15:33N 40°27' W 072°37'2 1.8
2014-Apr-11 14:34N 40°29' W 072°37'1 0.6
2014-Apr-11 13:30N 40°29' W 072°36'4 3.8
2014-Apr-11 12:33N 40°26' W 072°37'3 2.7
2014-Apr-11 11:24N 40°23' W 072°38'1 0.6
2014-Apr-11 10:26N 40°23' W 072°38'2 2.8
2014-Apr-11 09:34N 40°26' W 072°37'4 4.0
2014-Apr-11 08:34N 40°22' W 072°38'2 2.1
2014-Apr-11 07:33N 40°20' W 072°35'4 4.2
2014-Apr-11 06:33N 40°21' W 072°30'5 4.6
2014-Apr-11 05:34N 40°22' W 072°24'1 1.2
2014-Apr-11 04:33N 40°21' W 072°25'4 4.1
2014-Apr-11 03:33N 40°23' W 072°20'4 3.8
2014-Apr-11 02:33N 40°22' W 072°25'5 4.7
2014-Apr-11 01:34N 40°22' W 072°31'4 4.2
2014-Apr-11 00:33N 40°22' W 072°37'4 3.9
2014-Apr-10 23:33N 40°21' W 072°42'4 4.3
2014-Apr-10 22:33N 40°21' W 072°47'5 4.8
2014-Apr-10 21:33N 40°21' W 072°54'4 3.6
2014-Apr-10 20:33N 40°22' W 072°58'1 0.4
2014-Apr-10 18:27N 40°23' W 072°58'  

Dump ship's entire track history